createdAt,value
2023-01-03T00:02:11.343Z,9.76
2023-01-03T00:08:12.898Z,7.99
2023-01-03T00:10:43.861Z,9.03
2023-01-03T00:13:14.618Z,9.53
2023-01-03T00:16:02.553Z,7.99
2023-01-03T00:18:57.450Z,7.89
2023-01-03T00:21:24.527Z,9.69
2023-01-03T00:24:26.733Z,9.64
2023-01-03T00:26:57.351Z,7.98
2023-01-03T00:29:50.164Z,8.06
2023-01-03T00:32:17.917Z,7.94
2023-01-03T00:34:51.592Z,9.16
2023-01-03T00:37:43.449Z,8.06
2023-01-03T00:43:21.934Z,7.61
2023-01-03T00:46:25.726Z,7.68
2023-01-03T00:48:51.953Z,7.28
2023-01-03T00:51:39.086Z,7.64
2023-01-03T00:54:38.428Z,7.58
2023-01-03T01:07:14.478Z,7.60
2023-01-03T01:12:42.025Z,9.02
2023-01-03T01:17:55.871Z,9.06
2023-01-03T01:20:34.577Z,7.90
2023-01-03T01:23:28.613Z,7.78
2023-01-03T01:29:02.385Z,7.76
2023-01-03T01:31:37.011Z,9.68
2023-01-03T01:40:52.222Z,7.77
2023-01-03T01:46:51.473Z,8.17
2023-01-03T01:53:20.184Z,8.01
2023-01-03T01:56:52.809Z,8.13
2023-01-03T02:02:06.372Z,8.01
2023-01-03T02:05:24.964Z,8.05
2023-01-03T02:14:56.137Z,9.84
2023-01-03T02:17:32.044Z,9.85
2023-01-03T02:20:40.033Z,8.79
2023-01-03T02:29:51.644Z,9.78
2023-01-03T02:32:33.811Z,7.88
2023-01-03T03:06:16.972Z,8.21
2023-01-03T03:12:07.665Z,8.99
2023-01-03T03:14:53.863Z,7.88
2023-01-03T03:17:58.077Z,8.12
2023-01-03T03:21:06.507Z,8.15
2023-01-03T03:24:13.694Z,7.83
2023-01-03T03:26:48.649Z,8.25
2023-01-03T03:29:29.677Z,8.01
2023-01-03T03:35:21.054Z,9.46
2023-01-03T03:38:16.801Z,8.93
2023-01-03T03:45:05.333Z,7.93
2023-01-03T03:47:58.733Z,9.56
2023-01-03T03:50:53.586Z,7.83
2023-01-03T03:57:32.041Z,7.97
2023-01-03T04:04:29.702Z,7.77
2023-01-03T04:13:31.139Z,8.03
2023-01-03T04:16:40.295Z,7.68
2023-01-03T04:19:40.731Z,7.77
2023-01-03T04:23:45.932Z,9.64
2023-01-03T04:36:56.656Z,8.35
2023-01-03T04:39:46.622Z,7.78
2023-01-03T04:43:05.898Z,9.43
2023-01-03T04:46:15.485Z,7.72
2023-01-03T04:49:06.483Z,8.21
2023-01-03T04:52:07.644Z,8.24
2023-01-03T04:56:07.479Z,8.13
2023-01-03T05:06:21.823Z,8.30
2023-01-03T05:09:36.906Z,7.80
2023-01-03T05:13:10.853Z,7.74
2023-01-03T05:22:45.121Z,8.41
2023-01-03T05:26:00.614Z,9.40
2023-01-03T05:29:06.160Z,9.57
2023-01-03T05:35:21.025Z,7.76
2023-01-03T05:41:18.097Z,8.49
2023-01-03T05:44:12.427Z,7.44
2023-01-03T05:53:37.301Z,7.72
2023-01-03T05:57:03.199Z,8.32
2023-01-03T06:38:00.738Z,9.67
2023-01-03T06:40:34.025Z,9.65
2023-01-03T06:43:04.259Z,8.89
2023-01-03T06:45:49.952Z,9.70
2023-01-03T06:48:36.051Z,9.58
2023-01-03T06:51:42.450Z,9.57
2023-01-03T06:54:46.368Z,9.70
2023-01-03T06:57:27.648Z,9.57
2023-01-03T06:59:55.449Z,9.52
2023-01-03T07:02:22.774Z,9.48
2023-01-03T07:04:50.030Z,9.42
2023-01-03T07:07:17.034Z,9.52
2023-01-03T07:09:44.071Z,8.67
2023-01-03T07:12:29.842Z,8.69
2023-01-03T07:14:57.580Z,9.33
2023-01-03T07:17:24.513Z,9.21
2023-01-03T07:19:51.577Z,8.94
2023-01-03T07:22:18.570Z,9.09
2023-01-03T07:24:45.607Z,9.55
2023-01-03T07:27:13.086Z,9.38
2023-01-03T07:29:40.057Z,8.84
2023-01-03T07:32:07.059Z,8.99
2023-01-03T07:34:34.156Z,9.33
2023-01-03T07:37:01.134Z,9.43
2023-01-03T07:39:28.053Z,9.35
2023-01-03T07:42:13.769Z,9.38
2023-01-03T07:44:41.655Z,8.63
2023-01-03T07:47:08.724Z,9.52
2023-01-03T07:49:55.407Z,9.18
2023-01-03T07:52:35.980Z,8.81
2023-01-03T07:55:03.356Z,9.75
2023-01-03T07:57:30.895Z,9.83
2023-01-03T07:59:57.893Z,9.25
2023-01-03T08:02:25.054Z,9.71
2023-01-03T08:04:52.081Z,9.26
2023-01-03T08:07:19.080Z,9.64
2023-01-03T08:10:04.681Z,9.15
2023-01-03T08:12:50.269Z,9.00
2023-01-03T08:15:17.273Z,9.47
2023-01-03T08:17:44.324Z,9.68
2023-01-03T08:20:11.369Z,9.66
2023-01-03T08:22:38.481Z,8.91
2023-01-03T08:25:05.595Z,9.54
2023-01-03T08:27:32.776Z,8.70
2023-01-03T08:29:59.932Z,9.52
2023-01-03T08:32:27.216Z,9.44
2023-01-03T08:34:54.565Z,9.11
2023-01-03T08:37:24.775Z,9.30
2023-01-03T08:39:59.823Z,8.63
2023-01-03T08:42:27.081Z,8.95
2023-01-03T08:45:02.532Z,9.74
2023-01-03T08:47:30.726Z,9.29
2023-01-03T08:50:18.432Z,9.83
2023-01-03T08:53:19.373Z,9.63
2023-01-03T08:56:00.363Z,9.79
2023-01-03T08:58:27.365Z,9.86
2023-01-03T09:00:54.533Z,10.03
2023-01-03T09:03:21.625Z,9.29
2023-01-03T09:05:48.656Z,9.23
2023-01-03T09:08:17.994Z,9.39
2023-01-03T09:10:47.911Z,9.55
2023-01-03T09:13:35.468Z,9.68
2023-01-03T09:16:16.931Z,9.92
2023-01-03T09:18:44.555Z,9.35
2023-01-03T09:21:11.562Z,10.08
2023-01-03T09:23:38.573Z,9.33
2023-01-03T09:26:06.727Z,10.01
2023-01-03T09:28:34.051Z,10.10
2023-01-03T09:31:03.305Z,9.67
2023-01-03T09:33:30.375Z,9.84
2023-01-03T09:35:57.347Z,9.97
2023-01-03T09:38:24.310Z,10.32
2023-01-03T09:41:06.134Z,10.19
2023-01-03T09:43:41.241Z,9.15
2023-01-03T09:46:21.398Z,10.12
2023-01-03T09:49:09.504Z,10.05
2023-01-03T09:52:10.920Z,9.87
2023-01-03T09:55:00.067Z,9.82
2023-01-03T09:57:55.622Z,9.46
2023-01-03T10:00:48.989Z,10.20
2023-01-03T10:03:50.393Z,10.19
2023-01-03T10:06:27.719Z,10.43
2023-01-03T10:09:05.384Z,10.46
2023-01-03T10:11:51.294Z,10.74
2023-01-03T10:14:37.117Z,10.84
2023-01-03T10:17:22.810Z,10.50
2023-01-03T10:20:19.004Z,10.06
2023-01-03T10:22:49.324Z,10.49
2023-01-03T10:25:21.694Z,9.73
2023-01-03T10:27:57.197Z,10.38
2023-01-03T10:30:30.412Z,10.57
2023-01-03T10:33:35.349Z,10.36
2023-01-03T10:36:02.542Z,9.31
2023-01-03T10:38:30.147Z,9.98
2023-01-03T10:41:00.325Z,9.06
2023-01-03T10:43:39.950Z,10.18
2023-01-03T10:46:25.533Z,10.24
2023-01-03T10:49:32.474Z,9.88
2023-01-03T10:52:27.575Z,10.37
2023-01-03T10:55:33.656Z,10.14
2023-01-03T10:58:36.649Z,10.31
2023-01-03T11:01:19.996Z,10.28
2023-01-03T11:04:30.517Z,10.26
2023-01-03T11:07:14.314Z,9.93
2023-01-03T11:09:57.021Z,10.29
2023-01-03T11:12:51.477Z,10.30
2023-01-03T11:15:38.443Z,10.21
2023-01-03T11:18:17.233Z,10.08
2023-01-03T11:20:55.907Z,9.93
2023-01-03T11:23:36.214Z,9.69
2023-01-03T11:26:31.278Z,10.09
2023-01-03T11:29:36.206Z,10.28
2023-01-03T11:32:32.008Z,10.35
2023-01-03T11:35:47.539Z,10.38
2023-01-03T11:38:52.435Z,10.01
2023-01-03T11:41:38.448Z,10.23
2023-01-03T11:44:08.645Z,10.29
2023-01-03T11:47:03.603Z,10.31
2023-01-03T11:50:24.362Z,10.34
2023-01-03T11:53:49.517Z,10.24
2023-01-03T11:56:44.724Z,9.98
2023-01-03T11:59:28.436Z,10.41
2023-01-03T12:02:25.951Z,10.47
2023-01-03T12:05:24.361Z,10.37
2023-01-03T12:08:09.699Z,10.50
2023-01-03T12:11:03.860Z,10.50
2023-01-03T12:13:33.808Z,10.48
2023-01-03T12:16:13.033Z,10.55
2023-01-03T12:18:53.940Z,10.30
2023-01-03T12:21:37.271Z,10.53
2023-01-03T12:24:08.210Z,10.29
2023-01-03T12:26:41.932Z,9.78
2023-01-03T12:29:12.161Z,10.74
2023-01-03T12:32:07.558Z,10.62
2023-01-03T12:35:18.851Z,10.81
2023-01-03T12:37:49.914Z,9.86
2023-01-03T12:40:45.163Z,10.54
2023-01-03T12:43:19.806Z,10.03
2023-01-03T12:45:49.960Z,10.75
2023-01-03T12:48:35.603Z,10.68
2023-01-03T12:51:02.707Z,10.16
2023-01-03T12:54:18.686Z,10.27
2023-01-03T12:57:53.657Z,10.71
2023-01-03T13:00:44.423Z,10.77
2023-01-03T13:03:23.008Z,10.87
2023-01-03T13:05:55.331Z,10.61
2023-01-03T13:08:43.578Z,10.07
2023-01-03T13:11:21.709Z,9.79
2023-01-03T13:13:59.772Z,10.57
2023-01-03T13:16:45.738Z,10.61
2023-01-03T13:19:21.983Z,10.57
2023-01-03T13:21:55.131Z,10.64
2023-01-03T13:24:44.097Z,10.55
2023-01-03T13:27:17.204Z,10.57
2023-01-03T13:29:57.026Z,10.76
2023-01-03T13:32:45.613Z,10.09
2023-01-03T13:35:32.836Z,10.19
2023-01-03T13:38:39.664Z,10.17
2023-01-03T13:41:37.934Z,10.56
2023-01-03T13:44:23.387Z,10.67
2023-01-03T13:46:51.763Z,10.42
2023-01-03T13:49:42.595Z,10.68
2023-01-03T13:52:52.654Z,10.63
2023-01-03T13:55:52.706Z,9.46
2023-01-03T13:58:25.929Z,10.05
2023-01-03T14:01:00.453Z,9.46
2023-01-03T14:03:54.025Z,10.12
2023-01-03T14:06:45.786Z,9.73
2023-01-03T14:09:50.211Z,10.20
2023-01-03T14:12:43.923Z,10.17
2023-01-03T14:15:26.245Z,9.61
2023-01-03T14:18:02.089Z,10.27
2023-01-03T14:20:34.180Z,9.97
2023-01-03T14:23:48.317Z,9.38
2023-01-03T14:26:06.706Z,9.48
2023-01-03T14:28:34.838Z,9.72
2023-01-03T14:31:05.580Z,9.95
2023-01-03T14:34:00.731Z,10.13
2023-01-03T14:37:01.711Z,10.25
2023-01-03T14:40:15.885Z,10.42
2023-01-03T14:42:56.242Z,10.08
2023-01-03T14:45:23.324Z,9.61
2023-01-03T14:47:53.876Z,10.33
2023-01-03T14:50:30.729Z,10.35
2023-01-03T14:53:00.574Z,10.26
2023-01-03T14:55:32.777Z,10.22
2023-01-03T14:58:03.636Z,9.72
2023-01-03T15:00:36.636Z,10.10
2023-01-03T15:03:04.473Z,9.62
2023-01-03T15:05:34.528Z,10.20
2023-01-03T15:08:14.200Z,10.43
2023-01-03T15:10:53.148Z,9.91
2023-01-03T15:13:42.898Z,9.58
2023-01-03T15:16:34.631Z,10.34
2023-01-03T15:19:24.605Z,9.95
2023-01-03T15:22:05.523Z,9.87
2023-01-03T15:24:43.216Z,10.03
2023-01-03T15:27:33.203Z,10.30
2023-01-03T15:30:14.844Z,10.29
2023-01-03T15:33:40.690Z,10.36
2023-01-03T15:36:47.184Z,10.07
2023-01-03T15:39:36.747Z,10.20
2023-01-03T15:45:15.458Z,10.16
2023-01-03T15:48:08.326Z,10.03
2023-01-03T15:51:16.708Z,9.89
2023-01-03T15:54:07.181Z,10.17
2023-01-03T15:56:35.684Z,9.75
2023-01-03T15:59:07.850Z,9.93
2023-01-03T16:01:35.068Z,9.40
2023-01-03T16:04:02.330Z,10.10
2023-01-03T16:06:29.683Z,9.84
2023-01-03T16:08:57.088Z,10.09
2023-01-03T16:11:33.849Z,10.09
2023-01-03T16:14:05.115Z,9.38
2023-01-03T16:16:40.023Z,9.72
2023-01-03T16:19:08.042Z,9.76
2023-01-03T16:21:35.318Z,9.85
2023-01-03T16:24:02.996Z,9.98
2023-01-03T16:26:30.128Z,9.91
2023-01-03T16:28:57.094Z,10.04
2023-01-03T16:31:46.784Z,9.91
2023-01-03T16:34:47.730Z,9.80
2023-01-03T16:37:48.827Z,9.90
2023-01-03T16:40:30.541Z,9.57
2023-01-03T16:42:57.708Z,9.86
2023-01-03T16:45:24.760Z,9.55
2023-01-03T16:47:52.903Z,9.50
2023-01-03T16:50:21.240Z,9.68
2023-01-03T16:52:55.051Z,9.92
2023-01-03T16:55:35.572Z,9.63
2023-01-03T16:58:02.768Z,9.68
2023-01-03T17:00:32.002Z,10.02
2023-01-03T17:03:00.339Z,9.21
2023-01-03T17:05:32.018Z,10.03
2023-01-03T17:08:06.170Z,10.03
2023-01-03T17:10:37.255Z,10.02
2023-01-03T17:13:10.436Z,9.35
2023-01-03T17:15:41.472Z,9.59
2023-01-03T17:18:19.282Z,9.67
2023-01-03T17:21:18.705Z,9.55
2023-01-03T17:24:25.712Z,9.60
2023-01-03T17:27:12.443Z,10.01
2023-01-03T17:29:39.760Z,9.74
2023-01-03T17:32:35.750Z,9.85
2023-01-03T17:35:36.745Z,9.62
2023-01-03T17:38:26.707Z,9.90
2023-01-03T17:40:55.459Z,9.61
2023-01-03T17:43:25.501Z,9.59
2023-01-03T17:46:20.621Z,9.64
2023-01-03T17:49:08.367Z,9.46
2023-01-03T17:51:35.423Z,9.39
2023-01-03T17:54:02.468Z,9.91
2023-01-03T17:56:29.984Z,9.94
2023-01-03T17:58:57.272Z,9.33
2023-01-03T18:01:24.702Z,9.70
2023-01-03T18:03:52.132Z,9.10
2023-01-03T18:06:22.505Z,9.10
2023-01-03T18:08:51.952Z,9.84
2023-01-03T18:11:27.201Z,9.37
2023-01-03T18:13:54.267Z,9.90
2023-01-03T18:16:22.681Z,9.52
2023-01-03T18:18:50.076Z,9.85
2023-01-03T18:21:23.066Z,9.88
2023-01-03T18:23:59.667Z,9.75
2023-01-03T18:26:36.225Z,9.77
2023-01-03T18:29:04.932Z,9.77
2023-01-03T18:31:51.787Z,9.16
2023-01-03T18:34:52.794Z,9.47
2023-01-03T18:37:53.790Z,9.58
2023-01-03T18:40:42.090Z,9.39
2023-01-03T18:43:13.796Z,9.15
2023-01-03T18:45:42.107Z,9.14
2023-01-03T18:48:21.141Z,9.47
2023-01-03T18:50:57.529Z,9.65
2023-01-03T18:53:29.436Z,9.21
2023-01-03T18:55:56.624Z,9.20
2023-01-03T18:58:36.766Z,9.45
2023-01-03T19:01:04.768Z,9.14
2023-01-03T19:03:33.522Z,9.66
2023-01-03T19:06:02.296Z,9.67
2023-01-03T19:08:32.748Z,8.71
2023-01-03T19:11:06.610Z,9.74
2023-01-03T19:13:51.538Z,9.28
2023-01-03T19:16:37.494Z,9.40
2023-01-03T19:19:24.738Z,9.58
2023-01-03T19:22:19.352Z,9.69
2023-01-03T19:24:46.611Z,9.20
2023-01-03T19:27:18.798Z,9.10
2023-01-03T19:29:46.025Z,9.24
2023-01-03T19:32:35.828Z,9.61
2023-01-03T19:35:36.780Z,9.40
2023-01-03T19:38:17.560Z,8.71
2023-01-03T19:41:04.812Z,9.07
2023-01-03T19:43:45.421Z,9.41
2023-01-03T19:46:17.389Z,9.55
2023-01-03T19:48:46.915Z,9.20
2023-01-03T19:51:13.874Z,8.95
2023-01-03T19:53:42.638Z,9.36
2023-01-03T19:56:20.941Z,9.04
2023-01-03T19:58:48.756Z,9.44
2023-01-03T20:01:17.762Z,9.04
2023-01-03T20:03:45.311Z,9.26
2023-01-03T20:06:14.438Z,9.53
2023-01-03T20:08:41.411Z,9.48
2023-01-03T20:11:17.747Z,9.49
2023-01-03T20:13:45.554Z,9.54
2023-01-03T20:16:13.397Z,9.09
2023-01-03T20:18:41.842Z,9.49
2023-01-03T20:21:24.624Z,9.37
2023-01-03T20:23:54.493Z,9.50
2023-01-03T20:26:21.793Z,9.41
2023-01-03T20:28:51.155Z,9.40
2023-01-03T20:31:38.967Z,9.34
2023-01-03T20:34:19.538Z,9.35
2023-01-03T20:36:50.945Z,9.55
2023-01-03T20:39:48.846Z,9.48
2023-01-03T20:42:43.007Z,8.76
2023-01-03T20:45:23.737Z,8.90
2023-01-03T20:47:52.447Z,8.96
2023-01-03T20:50:25.060Z,8.75
2023-01-03T20:52:52.123Z,8.86
2023-01-03T20:55:21.730Z,9.43
2023-01-03T20:57:49.892Z,9.12
2023-01-03T21:00:27.345Z,9.50
2023-01-03T21:02:54.766Z,8.89
2023-01-03T21:05:22.529Z,9.45
2023-01-03T21:08:08.561Z,9.32
2023-01-03T21:10:38.855Z,9.35
2023-01-03T21:13:06.537Z,9.22
2023-01-03T21:15:33.919Z,9.25
2023-01-03T21:18:01.487Z,9.55
2023-01-03T21:20:30.792Z,9.08
2023-01-03T21:22:58.346Z,9.51
2023-01-03T21:25:25.339Z,9.57
2023-01-03T21:27:52.952Z,9.69
2023-01-03T21:30:22.622Z,9.40
2023-01-03T21:33:09.891Z,9.56
2023-01-03T21:35:52.888Z,9.58
2023-01-03T21:38:20.293Z,9.14
2023-01-03T21:40:50.785Z,9.54
2023-01-03T21:43:17.718Z,9.16
2023-01-03T21:45:47.181Z,9.49
2023-01-03T21:48:16.794Z,9.43
2023-01-03T21:50:46.351Z,9.16
2023-01-03T21:53:14.926Z,9.30
2023-01-03T21:55:42.341Z,8.75
2023-01-03T21:58:13.393Z,8.87
2023-01-03T22:00:40.857Z,8.78
2023-01-03T22:03:29.935Z,8.45
2023-01-03T22:06:11.600Z,8.96
2023-01-03T22:08:40.134Z,9.21
2023-01-03T22:11:08.260Z,9.06
2023-01-03T22:13:36.532Z,9.00
2023-01-03T22:16:05.418Z,9.37
2023-01-03T22:18:32.976Z,8.98
2023-01-03T22:21:05.458Z,9.02
2023-01-03T22:23:33.443Z,8.44
2023-01-03T22:26:03.486Z,9.17
2023-01-03T22:28:39.061Z,8.98
2023-01-03T22:31:34.905Z,9.30
2023-01-03T22:34:35.861Z,8.75
2023-01-03T22:37:16.926Z,8.67
2023-01-03T22:39:44.272Z,8.99
2023-01-03T22:42:16.054Z,9.20
2023-01-03T22:44:48.384Z,9.29
2023-01-03T22:47:15.870Z,9.36
2023-01-03T22:49:42.949Z,9.20
2023-01-03T22:52:12.036Z,8.97
2023-01-03T22:54:39.489Z,8.96
2023-01-03T22:57:06.645Z,9.22
2023-01-03T22:59:33.914Z,9.14
2023-01-03T23:02:01.120Z,9.35
2023-01-03T23:04:28.512Z,9.40
2023-01-03T23:06:55.618Z,9.55
2023-01-03T23:09:23.257Z,9.30
2023-01-03T23:12:29.016Z,9.60
2023-01-03T23:15:09.890Z,9.47
2023-01-03T23:17:55.418Z,9.38
2023-01-03T23:20:23.266Z,9.51
2023-01-03T23:22:54.157Z,8.73
2023-01-03T23:25:26.199Z,9.25
2023-01-03T23:27:53.183Z,9.25
2023-01-03T23:30:40.033Z,9.48
2023-01-03T23:33:27.292Z,9.18
2023-01-03T23:35:54.337Z,9.42
2023-01-03T23:38:21.324Z,8.78
2023-01-03T23:40:48.425Z,9.53
2023-01-03T23:43:15.456Z,8.91
2023-01-03T23:45:42.450Z,8.98
2023-01-03T23:48:09.428Z,9.53
2023-01-03T23:50:36.412Z,9.44
2023-01-03T23:53:03.393Z,8.90
2023-01-03T23:55:30.382Z,9.14
2023-01-03T23:57:57.413Z,9.08
